Latest Weather Observations for Batchelor

IDD60901

Issued at 9:41 pm CST Thursday 29 January 2015 (issued every 10 minutes, with the page automatically refreshed every 10 minutes)

About weather observations | Map of Darwin area stations | Latest observations for Darwin area | Other Formats
Station Details ID: 014272 Name: BATCHELOR AIRPORT Lat: -13.05 Lon: 131.03 Height: 104.0 m
Data from the previous 72 hours. | See also: Recent months at Batchelor
Date/Time
CST
Tmp

°C
App
Tmp
°C
Dew
Point
°C
Rel
Hum
%
Delta-T

°C
Wind Press
QNH
hPa
Press
MSL
hPa
Rain
since
9 am
mm
Dir
 
Spd
km/h
Gust
km/h
Spd
kts
Gust
kts
29/09:30pm 24.6 29.2 23.2 92 1.0 NNW 4 6 2 3 1008.3 1007.6 7.6
29/09:00pm 24.4 28.5 23.0 92 1.0 NNE 6 7 3 4 1008.1 1007.4 7.6
29/08:30pm 23.9 28.0 22.2 90 1.1 NNE 4 6 2 3 1007.5 1006.8 7.4
29/08:00pm 23.7 26.2 21.8 89 1.3 NNE 11 17 6 9 1007.4 1006.7 7.4
29/07:30pm 23.9 26.3 21.6 87 1.5 E 11 17 6 9 1006.8 1006.0 6.8
29/07:00pm 24.1 25.8 21.6 86 1.7 E 15 22 8 12 1006.7 1005.9 5.2
29/06:30pm 25.0 29.9 23.1 89 1.3 WNW 2 2 1 1 1005.8 1005.0 3.6
29/06:00pm 24.7 27.7 22.0 85 1.8 W 9 15 5 8 1004.9 1004.1 3.4
29/05:30pm 24.9 27.1 22.6 87 1.6 W 15 24 8 13 1005.4 1004.6 2.4
29/05:00pm 27.0 29.5 22.4 76 3.1 WNW 13 26 7 14 1004.5 1003.7 0.0
29/04:30pm 31.5 35.3 21.7 56 6.7 SE 4 7 2 4 1003.9 1003.1 0.0
29/04:00pm 32.1 35.2 22.2 56 6.8 SE 9 13 5 7 1003.9 1003.1 0.0
29/03:30pm 32.8 35.8 21.3 50 7.8 SSE 7 11 4 6 1004.5 1003.7 0.0
29/03:00pm 32.1 35.7 21.3 53 7.3 NNE 4 6 2 3 1004.8 1004.0 0.0
29/02:30pm 33.1 37.0 22.5 53 7.3 WSW 6 9 3 5 1005.2 1004.4 0.0
29/02:00pm 32.0 35.9 21.8 54 6.9 SW 4 7 2 4 1005.4 1004.6 0.0
29/01:30pm 32.0 36.4 23.5 60 5.9 SW 6 9 3 5 1006.0 1005.2 0.0
29/01:00pm 30.8 34.3 21.9 59 6.0 WNW 6 9 3 5 1006.6 1005.8 0.0
29/12:30pm 31.2 34.7 21.9 57 6.3 WNW 6 11 3 6 1007.1 1006.4 0.0
29/12:00pm 30.7 33.8 21.5 58 6.2 WNW 7 13 4 7 1007.4 1006.7 0.0
29/11:30am 30.1 34.2 22.3 63 5.3 NW 4 9 2 5 1007.6 1006.9 0.0
29/11:00am 29.3 32.7 21.0 61 5.5 NW 4 6 2 3 1008.0 1007.3 0.0
29/10:30am 28.7 31.8 21.0 63 5.1 WSW 6 11 3 6 1008.2 1007.5 0.0
29/10:00am 28.0 30.7 20.3 63 5.1 WNW 6 9 3 5 1008.3 1007.6 0.0
29/09:30am 27.4 32.3 22.4 74 3.4 CALM 0 6 0 3 1008.1 1007.4 0.0
29/09:00am 26.1 30.9 22.8 82 2.2 WNW 2 6 1 3 1007.9 1007.2 1.0
29/08:30am 25.4 30.0 23.1 87 1.6 WSW 4 9 2 5 1007.5 1006.8 1.0
29/08:00am 24.3 28.6 22.7 91 1.1 SW 4 6 2 3 1007.4 1006.7 1.0
29/07:30am 23.7 28.7 22.5 93 0.8 CALM 0 0 0 0 1006.9 1006.1 1.0
29/07:00am 23.4 27.6 22.4 94 0.7 SW 4 6 2 3 1006.2 1005.4 1.0
29/06:30am 23.4 28.0 22.4 94 0.7 ESE 2 2 1 1 1006.1 1005.3 1.0
29/06:00am 23.4 27.5 22.2 93 0.8 E 4 6 2 3 1006.0 1005.2 1.0
29/05:30am 23.4 26.9 22.2 93 0.8 E 7 9 4 5 1006.2 1005.4 1.0
29/05:00am 23.6 28.2 22.4 93 0.8 ENE 2 9 1 5 1006.5 1005.7 1.0
29/04:30am 23.5 27.1 22.1 92 0.9 NE 6 6 3 3 1006.4 1005.6 1.0
29/04:00am 23.5 26.8 21.9 91 1.1 N 7 11 4 6 1006.1 1005.3 1.0
29/03:30am 23.5 26.8 21.8 90 1.1 NNW 7 13 4 7 1006.3 1005.5 1.0
29/03:00am 23.3 26.5 21.7 91 1.1 NNW 7 11 4 6 1006.6 1005.8 1.0
29/02:30am 23.3 27.2 21.9 92 0.9 ENE 4 6 2 3 1007.0 1006.2 1.0
29/02:00am 23.3 27.1 21.6 90 1.1 ENE 4 6 2 3 1007.2 1006.5 0.8
29/01:30am 23.5 27.4 21.8 90 1.1 ENE 4 4 2 2 1007.5 1006.8 0.8
29/01:00am 23.5 26.9 21.6 89 1.3 E 6 9 3 5 1007.7 1007.0 0.8
29/12:30am 23.9 27.7 21.6 87 1.5 N 4 6 2 3 1007.8 1007.1 0.8
29/12:00am 23.7 27.0 21.4 87 1.5 NNW 6 7 3 4 1008.0 1007.3 0.8
 
Date/Time
CST
Tmp

°C
App
Tmp
°C
Dew
Point
°C
Rel
Hum
%
Delta-T

°C
Wind Press
QNH
hPa
Press
MSL
hPa
Rain
since
9 am
mm
Dir
 
Spd
km/h
Gust
km/h
Spd
kts
Gust
kts
28/11:30pm 23.8 27.1 21.5 87 1.5 W 6 7 3 4 1007.9 1007.2 0.8
28/11:00pm 23.8 27.4 21.3 86 1.7 NW 4 6 2 3 1008.0 1007.3 0.8
28/10:30pm 23.9 26.9 20.8 83 2.0 NNW 6 11 3 6 1008.0 1007.3 0.8
28/10:00pm 24.0 25.6 20.7 82 2.2 NNW 13 19 7 10 1007.7 1007.0 0.8
28/09:30pm 24.2 27.3 21.5 85 1.8 N 7 11 4 6 1007.8 1007.1 0.8
28/09:00pm 24.4 28.8 22.1 87 1.5 N 2 6 1 3 1007.9 1007.2 0.8
28/08:30pm 25.4 29.2 21.7 80 2.5 NW 4 6 2 3 1007.3 1006.6 0.0
28/08:00pm 25.7 29.0 21.4 77 2.9 N 6 7 3 4 1006.7 1005.9 0.0
28/07:30pm 25.9 29.6 22.2 80 2.5 WNW 6 9 3 5 1005.5 1004.7 0.0
28/07:00pm 26.8 30.3 22.2 76 3.1 WNW 7 11 4 6 1004.8 1004.0 0.0
28/06:30pm 27.4 30.6 22.4 74 3.4 NW 9 19 5 10 1004.2 1003.4 0.0
28/06:00pm 28.3 30.0 22.3 70 4.1 NNW 17 30 9 16 1003.8 1003.0 0.0
28/05:30pm 30.7 36.1 23.9 67 4.7 WSW 2 4 1 2 1003.2 1002.4 0.0
28/05:00pm 31.3 36.0 23.4 63 5.5 S 4 4 2 2 1002.7 1002.0 0.0
28/04:30pm 31.8 36.1 23.6 62 5.7 SSW 7 15 4 8 1002.5 1001.8 0.0
28/04:00pm 31.6 35.9 23.7 63 5.5 S 7 13 4 7 1002.7 1002.0 0.0
28/03:30pm 31.0 35.8 24.4 68 4.6 SSW 7 13 4 7 1003.1 1002.3 0.0
28/03:00pm 30.3 34.8 24.0 69 4.4 SSW 7 11 4 6 1003.5 1002.7 0.0
28/02:30pm 31.1 36.0 23.7 64 5.2 SW 4 7 2 4 1004.1 1003.3 0.0
28/02:00pm 30.6 35.6 23.8 67 4.7 N 4 6 2 3 1004.7 1003.9 0.0
28/01:30pm 29.9 34.8 23.1 67 4.7 WNW 2 6 1 3 1005.1 1004.3 0.0
28/01:00pm 29.6 34.7 23.3 69 4.3 NW 2 6 1 3 1005.4 1004.6 0.0
28/12:30pm 29.2 34.2 23.2 70 4.1 NNE 2 4 1 2 1005.8 1005.0 0.0
28/12:00pm 28.6 33.8 22.8 71 4.0 CALM 0 0 0 0 1006.2 1005.4 0.0
28/11:30am 28.2 32.7 22.9 73 3.6 ESE 4 6 2 3 1006.5 1005.7 0.0
28/11:00am 28.0 32.8 22.2 70 3.9 CALM 0 0 0 0 1006.3 1005.5 0.0
28/10:30am 27.9 32.5 22.4 72 3.7 SSE 2 6 1 3 1006.4 1005.6 0.0
28/10:00am 27.6 31.6 22.1 72 3.7 SE 4 6 2 3 1006.5 1005.7 0.0
28/09:30am 27.7 31.3 22.0 71 3.9 ESE 6 7 3 4 1006.5 1005.7 0.0
28/09:00am 27.4 31.0 22.1 73 3.6 ESE 6 9 3 5 1006.4 1005.6 18.0
28/08:30am 26.4 30.4 22.7 80 2.5 ESE 6 7 3 4 1006.2 1005.4 18.0
28/08:00am 24.6 28.8 22.5 88 1.4 S 4 6 2 3 1006.0 1005.2 18.0
28/07:30am 23.8 29.1 23.0 95 0.5 CALM 0 6 0 3 1005.6 1004.8 18.0
28/07:00am 23.5 27.9 22.8 96 0.5 SSE 4 7 2 4 1005.2 1004.4 18.0
28/06:30am 23.6 27.7 22.9 96 0.5 S 6 9 3 5 1004.9 1004.1 18.0
28/06:00am 23.7 28.6 23.0 96 0.5 SSW 2 6 1 3 1004.8 1004.0 17.8
28/05:30am 23.7 29.0 23.0 96 0.5 CALM 0 2 0 1 1004.7 1003.9 17.8
28/05:00am 23.6 28.4 22.9 96 0.5 S 2 4 1 2 1004.7 1003.9 17.8
28/04:30am 23.8 27.8 23.1 96 0.5 ESE 7 9 4 5 1004.5 1003.7 17.8
28/04:00am 23.9 28.9 23.2 96 0.5 SW 2 6 1 3 1004.9 1004.1 17.8
28/03:30am 23.9 28.5 23.2 96 0.5 SW 4 6 2 3 1005.3 1004.5 17.8
28/03:00am 23.9 29.3 23.2 96 0.5 CALM 0 0 0 0 1004.6 1003.8 17.8
28/02:30am 24.0 29.1 23.3 96 0.5 SW 2 4 1 2 1005.3 1004.5 17.8
28/02:00am 24.2 29.8 23.5 96 0.5 CALM 0 0 0 0 1005.9 1005.1 17.8
28/01:30am 24.3 29.9 23.6 96 0.5 CALM 0 0 0 0 1006.4 1005.6 17.8
28/01:00am 24.4 30.1 23.7 96 0.5 CALM 0 0 0 0 1006.5 1005.7 17.8
28/12:30am 24.5 29.5 23.8 96 0.5 WSW 4 7 2 4 1007.4 1006.7 17.8
28/12:00am 24.6 30.4 23.9 96 0.5 CALM 0 6 0 3 1007.5 1006.8 17.8
 
Date/Time
CST
Tmp

°C
App
Tmp
°C
Dew
Point
°C
Rel
Hum
%
Delta-T

°C
Wind Press
QNH
hPa
Press
MSL
hPa
Rain
since
9 am
mm
Dir
 
Spd
km/h
Gust
km/h
Spd
kts
Gust
kts
27/11:30pm 24.4 30.1 23.7 96 0.5 CALM 0 0 0 0 1007.8 1007.1 17.8
27/11:00pm 24.6 30.1 24.1 97 0.3 W 2 6 1 3 1008.1 1007.4 17.8
27/10:30pm 24.5 29.9 23.8 96 0.5 S 2 4 1 2 1008.0 1007.3 17.8
27/10:00pm 24.4 26.3 23.4 94 0.7 SSE 19 32 10 17 1008.1 1007.4 13.6
27/09:30pm 25.9 31.3 24.5 92 1.0 SW 4 4 2 2 1007.5 1006.8 5.2
27/09:00pm 26.1 31.9 24.5 91 1.1 SW 2 4 1 2 1007.5 1006.8 5.2
27/08:30pm 26.4 32.6 24.6 90 1.3 CALM 0 0 0 0 1007.3 1006.6 5.2
27/08:00pm 26.5 32.1 24.3 88 1.5 SW 2 4 1 2 1006.6 1005.8 5.2
27/07:30pm 26.9 32.2 24.4 86 1.7 W 4 6 2 3 1005.8 1005.0 5.2
27/07:00pm 27.4 32.3 24.3 83 2.2 W 6 11 3 6 1005.4 1004.6 5.2
27/06:30pm 28.0 32.3 24.2 80 2.6 WNW 9 17 5 9 1004.6 1003.8 5.2
27/06:00pm 28.2 32.6 24.4 80 2.7 WNW 9 17 5 9 1004.5 1003.7 5.2
27/05:30pm 27.6 31.1 23.6 79 2.8 W 11 19 6 10 1004.6 1003.8 5.2
27/05:00pm 27.2 31.2 23.7 81 2.4 NW 9 15 5 8 1004.2 1003.4 5.2
27/04:30pm 26.3 30.1 22.8 81 2.4 WNW 7 11 4 6 1004.4 1003.6 5.0
27/04:00pm 26.0 30.1 23.3 85 1.8 WNW 7 13 4 7 1004.5 1003.7 5.0
27/03:30pm 25.2 29.5 23.3 89 1.3 WNW 6 9 3 5 1004.7 1003.9 5.0
27/03:00pm 24.4 28.2 22.7 90 1.2 NW 7 11 4 6 1005.2 1004.4 5.0
27/02:30pm 23.7 27.4 22.3 92 0.9 WNW 6 9 3 5 1005.6 1004.8 5.0
27/02:00pm 23.1 26.6 21.9 93 0.8 WNW 6 7 3 4 1006.1 1005.3 5.0
27/01:30pm 23.1 26.7 22.1 94 0.7 WNW 6 9 3 5 1007.1 1006.4 4.8
27/01:00pm 23.3 25.9 21.9 92 0.9 WNW 11 17 6 9 1007.7 1007.0 4.2
27/12:30pm 23.2 26.4 21.6 91 1.1 WSW 7 13 4 7 1007.4 1006.7 4.0
27/12:00pm 23.4 26.6 21.7 90 1.1 WNW 7 9 4 5 1008.0 1007.3 3.8
27/11:30am 23.3 27.0 22.3 94 0.7 WNW 6 9 3 5 1008.4 1007.7 3.8
27/11:00am 22.7 25.5 21.5 93 0.8 WNW 9 13 5 7 1008.3 1007.6 3.8
27/10:30am 22.8 26.0 21.6 93 0.8 WSW 7 9 4 5 1008.8 1008.1 2.8
27/10:00am 23.4 25.9 21.8 91 1.1 S 11 22 6 12 1009.5 1008.8 0.0
27/09:30am 23.8 25.8 22.2 91 1.1 ESE 15 26 8 14 1009.5 1008.8 0.0
27/09:00am 25.8 29.7 24.2 91 1.1 ESE 11 20 6 11 1009.1 1008.4 41.4
27/08:30am 25.6 30.5 24.7 95 0.6 E 7 9 4 5 1008.8 1008.1 41.4
27/08:00am 25.1 30.8 24.4 96 0.5 W 2 4 1 2 1008.5 1007.8 41.4
27/07:30am 24.8 30.4 24.3 97 0.3 W 2 4 1 2 1008.2 1007.5 41.4
27/07:00am 24.1 28.8 23.4 96 0.5 W 4 4 2 2 1007.8 1007.1 41.4
27/06:30am 23.9 29.3 23.2 96 0.5 CALM 0 0 0 0 1007.9 1007.2 41.4
27/06:00am 24.1 29.6 23.4 96 0.5 CALM 0 2 0 1 1007.6 1006.9 41.4
27/05:30am 24.2 29.6 23.3 95 0.6 CALM 0 0 0 0 1007.1 1006.4 41.4
27/05:00am 24.6 30.2 23.6 94 0.7 CALM 0 0 0 0 1006.6 1005.8 41.4
27/04:30am 24.9 30.7 24.0 95 0.6 CALM 0 0 0 0 1006.4 1005.6 41.4
27/04:00am 24.8 30.6 23.9 95 0.6 CALM 0 0 0 0 1006.4 1005.6 41.4
27/03:30am 24.7 29.6 23.7 94 0.7 W 4 6 2 3 1006.1 1005.3 41.4
27/03:00am 24.8 29.3 23.6 93 0.8 W 6 7 3 4 1006.2 1005.4 41.4
27/02:30am 24.9 29.3 23.5 92 1.0 W 6 7 3 4 1006.1 1005.3 41.4
27/02:00am 24.5 29.1 23.1 92 1.0 W 4 7 2 4 1006.3 1005.5 41.4
27/01:30am 24.5 29.1 23.1 92 1.0 WSW 4 6 2 3 1006.9 1006.1 41.4
27/01:00am 24.6 29.2 23.2 92 1.0 WSW 4 6 2 3 1007.8 1007.1 41.4
27/12:30am 24.8 29.5 23.4 92 1.0 WSW 4 6 2 3 1008.2 1007.5 41.4
27/12:00am 25.1 29.4 23.3 90 1.2 W 6 9 3 5 1008.5 1007.8 41.4
 
Date/Time
CST
Tmp

°C
App
Tmp
°C
Dew
Point
°C
Rel
Hum
%
Delta-T

°C
Wind Press
QNH
hPa
Press
MSL
hPa
Rain
since
9 am
mm
Dir
 
Spd
km/h
Gust
km/h
Spd
kts
Gust
kts
26/11:30pm 25.0 29.2 23.2 90 1.2 W 6 9 3 5 1008.8 1008.1 41.4
26/11:00pm 25.0 29.6 23.8 93 0.8 WNW 6 11 3 6 1008.8 1008.1 41.4
26/10:30pm 24.9 29.8 23.7 93 0.8 WNW 4 7 2 4 1008.7 1008.0 41.4
26/10:00pm 25.0 29.6 23.8 93 0.8 WNW 6 9 3 5 1008.4 1007.7 41.4

Latest Capital City Observations: Canberra | Sydney | Melbourne | Brisbane | Adelaide | Perth | Hobart | Darwin

Other Formats:

Comma delimited format used in spreadsheet applications
http://www.bom.gov.au/fwo/IDD60901/IDD60901.94125.axf

JavaScript Object Notation format (JSON) in row-major order
http://www.bom.gov.au/fwo/IDD60901/IDD60901.94125.json